createdAt,value
2023-05-16T00:02:29.756Z,1014
2023-05-16T00:08:39.347Z,1014
2023-05-16T00:13:35.784Z,1014
2023-05-16T00:18:32.409Z,1014
2023-05-16T00:23:28.897Z,1014
2023-05-16T00:29:39.477Z,1014
2023-05-16T00:39:32.718Z,1014
2023-05-16T00:44:37.276Z,1014
2023-05-16T00:49:33.855Z,1014
2023-05-16T01:00:41.019Z,1014
2023-05-16T01:05:37.645Z,1014
2023-05-16T01:10:34.197Z,1014
2023-05-16T01:15:30.595Z,1014
2023-05-16T01:21:41.216Z,1014
2023-05-16T01:26:37.872Z,1014
2023-05-16T01:31:34.371Z,1014
2023-05-16T01:36:30.846Z,1014
2023-05-16T01:42:41.526Z,1014
2023-05-16T01:47:38.100Z,1014
2023-05-16T01:52:34.729Z,1014
2023-05-16T01:57:31.201Z,1014
2023-05-16T02:03:41.797Z,1015
2023-05-16T02:08:38.333Z,1014
2023-05-16T02:13:34.877Z,1015
2023-05-16T02:18:35.734Z,1015
2023-05-16T02:24:42.108Z,1015
2023-05-16T02:29:38.690Z,1015
2023-05-16T02:34:35.230Z,1015
2023-05-16T02:39:31.691Z,1015
2023-05-16T02:45:42.339Z,1015
2023-05-16T02:50:38.908Z,1015
2023-05-16T02:55:35.649Z,1015
2023-05-16T03:00:31.903Z,1015
2023-05-16T03:06:42.582Z,1015
2023-05-16T03:11:39.153Z,1015
2023-05-16T03:16:35.778Z,1015
2023-05-16T03:21:32.165Z,1015
2023-05-16T03:26:28.806Z,1015
2023-05-16T03:32:39.398Z,1015
2023-05-16T03:37:35.965Z,1015
2023-05-16T03:42:32.436Z,1015
2023-05-16T03:48:43.118Z,1015
2023-05-16T03:53:39.642Z,1016
2023-05-16T03:58:36.320Z,1016
2023-05-16T04:03:32.773Z,1016
2023-05-16T04:08:29.233Z,1016
2023-05-16T04:14:41.148Z,1016
2023-05-16T04:19:36.648Z,1016
2023-05-16T04:24:32.971Z,1016
2023-05-16T04:29:29.663Z,1016
2023-05-16T04:35:40.209Z,1016
2023-05-16T04:40:36.762Z,1016
2023-05-16T04:45:34.291Z,1016
2023-05-16T04:50:29.744Z,1016
2023-05-16T04:56:40.404Z,1016
2023-05-16T05:01:36.994Z,1017
2023-05-16T05:06:33.542Z,1017
2023-05-16T05:11:30.057Z,1017
2023-05-16T05:17:40.820Z,1017
2023-05-16T05:22:37.295Z,1017
2023-05-16T05:27:33.799Z,1017
2023-05-16T05:38:41.045Z,1017
2023-05-16T05:43:37.626Z,1017
2023-05-16T05:48:34.292Z,1017
2023-05-16T05:53:30.594Z,1017
2023-05-16T05:59:41.169Z,1017
2023-05-16T06:04:37.903Z,1017
2023-05-16T06:09:34.407Z,1017
2023-05-16T06:14:30.785Z,1017
2023-05-16T06:20:41.449Z,1018
2023-05-16T06:25:38.084Z,1018
2023-05-16T06:30:34.605Z,1018
2023-05-16T06:35:31.161Z,1018
2023-05-16T06:41:41.746Z,1018
2023-05-16T06:46:38.596Z,1018
2023-05-16T06:51:34.834Z,1018
2023-05-16T06:56:31.450Z,1018
2023-05-16T07:02:42.103Z,1018
2023-05-16T07:07:38.616Z,1018
2023-05-16T07:12:35.276Z,1018
2023-05-16T07:17:31.668Z,1018
2023-05-16T07:22:28.245Z,1018
2023-05-16T07:28:38.761Z,1018
2023-05-16T07:33:35.382Z,1018
2023-05-16T07:38:31.907Z,1018
2023-05-16T07:44:42.764Z,1018
2023-05-16T07:49:39.127Z,1018
2023-05-16T07:54:35.665Z,1018
2023-05-16T07:59:32.424Z,1018
2023-05-16T08:04:28.725Z,1018
2023-05-16T08:10:39.451Z,1018
2023-05-16T08:15:35.997Z,1018
2023-05-16T08:20:32.552Z,1018
2023-05-16T08:26:43.105Z,1018
2023-05-16T08:31:39.718Z,1018
2023-05-16T08:36:36.165Z,1018
2023-05-16T08:41:32.730Z,1018
2023-05-16T08:46:29.247Z,1018
2023-05-16T08:52:39.838Z,1018
2023-05-16T08:57:36.377Z,1018
2023-05-16T09:02:32.966Z,1018
2023-05-16T09:07:29.460Z,1018
2023-05-16T09:13:40.154Z,1018
2023-05-16T09:18:36.756Z,1018
2023-05-16T09:23:35.124Z,1018
2023-05-16T09:28:29.785Z,1018
2023-05-16T09:34:40.385Z,1018
2023-05-16T09:39:36.928Z,1018
2023-05-16T09:44:33.592Z,1018
2023-05-16T09:49:30.052Z,1018
2023-05-16T09:55:40.748Z,1018
2023-05-16T10:00:37.198Z,1018
2023-05-16T10:05:33.961Z,1018
2023-05-16T10:16:40.949Z,1018
2023-05-16T10:21:37.383Z,1018
2023-05-16T10:26:34.031Z,1018
2023-05-16T10:31:30.493Z,1018
2023-05-16T10:37:41.290Z,1018
2023-05-16T10:42:37.720Z,1018
2023-05-16T10:47:34.454Z,1018
2023-05-16T10:52:30.844Z,1018
2023-05-16T10:58:41.415Z,1018
2023-05-16T11:03:38.197Z,1018
2023-05-16T11:08:34.565Z,1019
2023-05-16T11:13:31.026Z,1018
2023-05-16T11:19:41.780Z,1018
2023-05-16T11:24:38.278Z,1019
2023-05-16T11:29:34.888Z,1018
2023-05-16T11:34:31.233Z,1018
2023-05-16T11:40:42.034Z,1018
2023-05-16T11:45:38.491Z,1018
2023-05-16T11:50:35.089Z,1018
2023-05-16T11:55:42.109Z,1018
2023-05-16T12:00:28.122Z,1018
2023-05-16T12:06:38.770Z,1018
2023-05-16T12:11:35.402Z,1018
2023-05-16T12:16:31.910Z,1018
2023-05-16T12:22:42.509Z,1018
2023-05-16T12:27:41.007Z,1018
2023-05-16T12:32:35.680Z,1018
2023-05-16T12:37:32.080Z,1018
2023-05-16T12:43:43.869Z,1018
2023-05-16T12:48:39.323Z,1018
2023-05-16T12:53:35.876Z,1018
2023-05-16T12:58:32.417Z,1018
2023-05-16T13:03:29.038Z,1018
2023-05-16T13:09:39.550Z,1018
2023-05-16T13:19:32.746Z,1018
2023-05-16T13:24:29.142Z,1018
2023-05-16T13:30:39.875Z,1018
2023-05-16T13:35:36.379Z,1019
2023-05-16T13:40:32.983Z,1019
2023-05-16T13:45:29.629Z,1019
2023-05-16T13:51:40.126Z,1019
2023-05-16T13:56:36.766Z,1018
2023-05-16T14:01:33.297Z,1019
2023-05-16T14:06:29.958Z,1019
2023-05-16T14:12:40.393Z,1019
2023-05-16T14:17:36.989Z,1019
2023-05-16T14:22:33.559Z,1018
2023-05-16T14:27:29.987Z,1018
2023-05-16T14:33:40.551Z,1018
2023-05-16T14:38:37.194Z,1018
2023-05-16T14:43:33.835Z,1018
2023-05-16T14:48:30.435Z,1018
2023-05-16T14:54:40.886Z,1018
2023-05-16T14:59:37.458Z,1018
2023-05-16T15:04:34.011Z,1018
2023-05-16T15:09:30.571Z,1018
2023-05-16T15:15:41.169Z,1018
2023-05-16T15:20:37.680Z,1018
2023-05-16T15:25:34.396Z,1018
2023-05-16T15:30:30.805Z,1018
2023-05-16T15:36:41.425Z,1019
2023-05-16T15:40:26.980Z,1019
2023-05-16T15:42:01.066Z,1019
2023-05-16T15:46:34.660Z,1019
2023-05-16T15:51:31.006Z,1019
2023-05-16T15:57:41.621Z,1019
2023-05-16T16:02:38.405Z,1019
2023-05-16T16:07:34.791Z,1019
2023-05-16T16:12:31.831Z,1019
2023-05-16T16:18:41.986Z,1019
2023-05-16T16:23:38.538Z,1019
2023-05-16T16:28:35.010Z,1019
2023-05-16T16:33:31.661Z,1019
2023-05-16T16:39:42.284Z,1019
2023-05-16T16:44:39.109Z,1019
2023-05-16T16:49:35.315Z,1019
2023-05-16T16:54:31.895Z,1019
2023-05-16T17:00:42.565Z,1019
2023-05-16T17:05:39.061Z,1019
2023-05-16T17:10:35.721Z,1019
2023-05-16T17:15:32.146Z,1019
2023-05-16T17:20:28.743Z,1019
2023-05-16T17:26:39.332Z,1019
2023-05-16T17:31:35.888Z,1019
2023-05-16T17:36:32.449Z,1020
2023-05-16T17:41:28.864Z,1020
2023-05-16T17:47:39.670Z,1020
2023-05-16T17:57:32.706Z,1020
2023-05-16T18:02:29.230Z,1020
2023-05-16T18:08:39.960Z,1020
2023-05-16T18:13:36.498Z,1020
2023-05-16T18:18:33.054Z,1020
2023-05-16T18:23:29.582Z,1020
2023-05-16T18:29:40.114Z,1020
2023-05-16T18:34:36.611Z,1020
2023-05-16T18:39:33.212Z,1020
2023-05-16T18:44:29.700Z,1020
2023-05-16T18:50:40.287Z,1020
2023-05-16T18:55:36.898Z,1020
2023-05-16T19:00:33.434Z,1020
2023-05-16T19:05:30.369Z,1020
2023-05-16T19:11:40.547Z,1020
2023-05-16T19:16:37.282Z,1020
2023-05-16T19:21:33.759Z,1020
2023-05-16T19:26:30.250Z,1020
2023-05-16T19:32:40.908Z,1020
2023-05-16T19:37:37.528Z,1021
2023-05-16T19:42:33.967Z,1020
2023-05-16T19:47:30.570Z,1021
2023-05-16T19:53:41.185Z,1021
2023-05-16T19:58:37.656Z,1021
2023-05-16T20:03:35.648Z,1021
2023-05-16T20:08:30.737Z,1021
2023-05-16T20:14:41.465Z,1021
2023-05-16T20:19:38.105Z,1021
2023-05-16T20:24:34.504Z,1021
2023-05-16T20:29:31.222Z,1021
2023-05-16T20:35:41.648Z,1021
2023-05-16T20:40:38.176Z,1021
2023-05-16T20:45:34.780Z,1021
2023-05-16T20:50:31.212Z,1021
2023-05-16T20:56:41.919Z,1021
2023-05-16T21:01:38.548Z,1021
2023-05-16T21:06:35.102Z,1021
2023-05-16T21:11:31.478Z,1021
2023-05-16T21:17:42.296Z,1021
2023-05-16T21:21:24.666Z,1021
2023-05-16T21:22:46.938Z,1021
2023-05-16T21:32:40.028Z,1021
2023-05-16T21:37:36.619Z,1021
2023-05-16T21:42:33.253Z,1021
2023-05-16T21:47:29.794Z,1021
2023-05-16T21:53:40.218Z,1021
2023-05-16T21:58:36.902Z,1021
2023-05-16T22:03:33.407Z,1021
2023-05-16T22:08:29.809Z,1021
2023-05-16T22:14:40.657Z,1021
2023-05-16T22:19:37.238Z,1021
2023-05-16T22:24:33.698Z,1021
2023-05-16T22:29:30.101Z,1021
2023-05-16T22:35:40.727Z,1021
2023-05-16T22:40:37.457Z,1021
2023-05-16T22:45:33.840Z,1021
2023-05-16T22:56:41.021Z,1021
2023-05-16T23:01:37.586Z,1021
2023-05-16T23:06:34.165Z,1022
2023-05-16T23:11:30.613Z,1021
2023-05-16T23:17:41.275Z,1021
2023-05-16T23:22:37.820Z,1022
2023-05-16T23:27:34.313Z,1022
2023-05-16T23:32:30.803Z,1022
2023-05-16T23:33:45.114Z,1022
2023-05-16T23:38:41.545Z,1022
2023-05-16T23:43:38.199Z,1022
2023-05-16T23:48:34.920Z,1022
2023-05-16T23:53:31.142Z,1022
2023-05-16T23:59:41.851Z,1022
